Thaani — HBY4477 — position and weather

sailwx.info

Track history (hours):
 
Tides and Currents Weather Stations Pressure Air Temp Water Temp Dewpoint Dewpoint Depression Visibility Wind Speed Wind Dir Waves Ship Positions

Thaani

Last reported at 2014-Aug-12 08:19 UTC. Time now 2014-Sep-01 14:03 UTC.
Position N 49°29' E 000°07'.
Warning: this ship's position is 20 days out of date.

Length 14 m.

Type: Pleasure craft. MMSI: 269102970.

Date/timePositionNaut miles runAvg speedWind from/ knotsBaromVisibWave heightAir tempDewpointWater temp
2014-Aug-12 08:19N 49°29' E 000°07'0 0.5
2014-Aug-12 07:33N 49°29' E 000°07'0 0.5
2014-Aug-12 06:33N 49°29' E 000°06'1 0.6
2014-Aug-12 05:31N 49°29' E 000°06'  
2014-Aug-09 19:29N 49°29' E 000°06'0 0.0
2014-Aug-09 18:29N 49°29' E 000°06'0 0.0
2014-Aug-09 17:29N 49°29' E 000°06'0 0.2
2014-Aug-09 16:30N 49°29' E 000°06'5 5.6
2014-Aug-09 15:33N 49°34' E 000°04'100 2.0
2014-Aug-07 14:33N 50°56' E 001°34'7 7.1
2014-Aug-07 13:33N 51°02' E 001°29'7 6.6
2014-Aug-07 12:33N 51°09' E 001°27'6 6.4
2014-Aug-07 11:33N 51°15' E 001°28'5 4.7
2014-Aug-07 10:32N 51°20' E 001°25'0 0.0
2014-Aug-07 09:32N 51°20' E 001°25'0 0.0
2014-Aug-07 08:32N 51°20' E 001°25'0 0.0
2014-Aug-05 17:33N 51°20' E 001°25'0 0.0
2014-Aug-05 16:32N 51°20' E 001°25'0 0.0
2014-Aug-05 15:32N 51°20' E 001°25'3 2.7
2014-Aug-05 14:33N 51°21' E 001°29'6 5.7
2014-Aug-05 13:33N 51°27' E 001°32'6 6.0
2014-Aug-05 12:33N 51°32' E 001°35'7 6.7
2014-Aug-05 11:33N 51°38' E 001°41'7 6.6
2014-Aug-05 10:33N 51°44' E 001°38'7 6.8
2014-Aug-05 09:33N 51°51' E 001°33'7 6.7
2014-Aug-05 08:34N 51°55' E 001°26'6 6.1
2014-Aug-05 07:34N 51°57' E 001°17'0 0.0
2014-Aug-04 17:32N 51°58' E 001°17'0 0.0
2014-Aug-04 16:32N 51°58' E 001°17'0 0.0
2014-Aug-04 15:32N 51°58' E 001°17'4 3.8
2014-Aug-04 14:33N 51°55' E 001°21'8 8.2
2014-Aug-04 13:33N 52°00' E 001°32'8 7.7
2014-Aug-04 12:33N 52°07' E 001°39'7 6.9
2014-Aug-04 11:33N 52°14' E 001°41'29 0.6
2014-Aug-02 14:33N 52°43' E 001°43'6 5.5
2014-Aug-02 13:33N 52°47' E 001°38'7 7.1
2014-Aug-02 12:33N 52°52' E 001°30'6 6.1
2014-Aug-02 11:33N 52°56' E 001°22'  
Track history (hours):
 
Tides and Currents Weather Stations Pressure Air Temp Water Temp Dewpoint Dewpoint Depression Visibility Wind Speed Wind Dir Waves Ship Positions

Thaani

Last reported at 2014-Aug-12 08:19 UTC. Time now 2014-Sep-01 14:03 UTC.
Position N 49°29' E 000°07'.
Warning: this ship's position is 20 days out of date.

Length 14 m.

Type: Pleasure craft. MMSI: 269102970.

Date/timePositionNaut miles runAvg speedWind from/ knotsBaromVisibWave heightAir tempDewpointWater temp
2014-Aug-12 08:19N 49°29' E 000°07'0 0.5
2014-Aug-12 07:33N 49°29' E 000°07'0 0.5
2014-Aug-12 06:33N 49°29' E 000°06'1 0.6
2014-Aug-12 05:31N 49°29' E 000°06'  
2014-Aug-09 19:29N 49°29' E 000°06'0 0.0
2014-Aug-09 18:29N 49°29' E 000°06'0 0.0
2014-Aug-09 17:29N 49°29' E 000°06'0 0.2
2014-Aug-09 16:30N 49°29' E 000°06'5 5.6
2014-Aug-09 15:33N 49°34' E 000°04'100 2.0
2014-Aug-07 14:33N 50°56' E 001°34'7 7.1
2014-Aug-07 13:33N 51°02' E 001°29'7 6.6
2014-Aug-07 12:33N 51°09' E 001°27'6 6.4
2014-Aug-07 11:33N 51°15' E 001°28'5 4.7
2014-Aug-07 10:32N 51°20' E 001°25'0 0.0
2014-Aug-07 09:32N 51°20' E 001°25'0 0.0
2014-Aug-07 08:32N 51°20' E 001°25'0 0.0
2014-Aug-05 17:33N 51°20' E 001°25'0 0.0
2014-Aug-05 16:32N 51°20' E 001°25'0 0.0
2014-Aug-05 15:32N 51°20' E 001°25'3 2.7
2014-Aug-05 14:33N 51°21' E 001°29'6 5.7
2014-Aug-05 13:33N 51°27' E 001°32'6 6.0
2014-Aug-05 12:33N 51°32' E 001°35'7 6.7
2014-Aug-05 11:33N 51°38' E 001°41'7 6.6
2014-Aug-05 10:33N 51°44' E 001°38'7 6.8
2014-Aug-05 09:33N 51°51' E 001°33'7 6.7
2014-Aug-05 08:34N 51°55' E 001°26'6 6.1
2014-Aug-05 07:34N 51°57' E 001°17'0 0.0
2014-Aug-04 17:32N 51°58' E 001°17'0 0.0
2014-Aug-04 16:32N 51°58' E 001°17'0 0.0
2014-Aug-04 15:32N 51°58' E 001°17'4 3.8
2014-Aug-04 14:33N 51°55' E 001°21'8 8.2
2014-Aug-04 13:33N 52°00' E 001°32'8 7.7
2014-Aug-04 12:33N 52°07' E 001°39'7 6.9
2014-Aug-04 11:33N 52°14' E 001°41'29 0.6
2014-Aug-02 14:33N 52°43' E 001°43'6 5.5
2014-Aug-02 13:33N 52°47' E 001°38'7 7.1
2014-Aug-02 12:33N 52°52' E 001°30'6 6.1
2014-Aug-02 11:33N 52°56' E 001°22'  

Dump ship's entire track history